createdAt,value
2018-08-20T00:00:43.295Z,100739.50
2018-08-20T00:03:16.797Z,100738.03
2018-08-20T00:05:54.392Z,100743.51
2018-08-20T00:08:27.824Z,100741.45
2018-08-20T00:11:01.304Z,100743.06
2018-08-20T00:13:34.681Z,100741.11
2018-08-20T00:16:08.121Z,100741.35
2018-08-20T00:18:41.587Z,100737.31
2018-08-20T00:21:14.983Z,100733.99
2018-08-20T00:23:48.392Z,100740.01
2018-08-20T00:26:21.833Z,100729.34
2018-08-20T00:28:55.215Z,100731.71
2018-08-20T00:31:28.769Z,100727.06
2018-08-20T00:34:02.203Z,100731.14
2018-08-20T00:36:35.692Z,100725.14
2018-08-20T00:39:10.682Z,100726.54
2018-08-20T00:41:44.434Z,100726.73
2018-08-20T00:44:18.419Z,100722.67
2018-08-20T00:46:51.840Z,100716.45
2018-08-20T00:49:25.253Z,100719.33
2018-08-20T00:51:58.769Z,100719.69
2018-08-20T00:54:32.237Z,100717.85
2018-08-20T00:57:05.748Z,100718.08
2018-08-20T00:59:39.164Z,100722.72
2018-08-20T01:02:12.597Z,100715.55
2018-08-20T01:04:46.083Z,100717.89
2018-08-20T01:07:19.491Z,100720.38
2018-08-20T01:09:52.914Z,100724.38
2018-08-20T01:12:27.126Z,100725.69
2018-08-20T01:15:00.535Z,100724.03
2018-08-20T01:17:33.990Z,100723.20
2018-08-20T01:20:07.531Z,100719.38
2018-08-20T01:22:40.942Z,100722.08
2018-08-20T01:25:14.380Z,100707.88
2018-08-20T01:27:50.436Z,100712.89
2018-08-20T01:30:23.847Z,100713.83
2018-08-20T01:33:01.596Z,100715.41
2018-08-20T01:35:35.059Z,100712.53
2018-08-20T01:38:08.551Z,100710.69
2018-08-20T01:40:41.952Z,100714.83
2018-08-20T01:43:15.361Z,100713.92
2018-08-20T01:45:48.739Z,100711.77
2018-08-20T01:48:22.168Z,100708.09
2018-08-20T01:50:55.619Z,100707.26
2018-08-20T01:53:29.029Z,100698.53
2018-08-20T01:56:02.484Z,100698.42
2018-08-20T01:58:35.927Z,100700.19
2018-08-20T02:01:09.728Z,100699.89
2018-08-20T02:03:43.169Z,100696.29
2018-08-20T02:06:16.593Z,100689.33
2018-08-20T02:08:50.050Z,100697.51
2018-08-20T02:11:23.518Z,100697.51
2018-08-20T02:13:57.964Z,100699.18
2018-08-20T02:16:31.401Z,100701.66
2018-08-20T02:19:04.845Z,100698.59
2018-08-20T02:21:38.286Z,100698.80
2018-08-20T02:24:11.670Z,100698.41
2018-08-20T02:26:45.088Z,100692.31
2018-08-20T02:29:18.479Z,100692.31
2018-08-20T02:31:51.940Z,100697.30
2018-08-20T02:34:28.245Z,100694.53
2018-08-20T02:37:01.675Z,100695.83
2018-08-20T02:39:35.090Z,100691.40
2018-08-20T02:42:08.523Z,100696.77
2018-08-20T02:44:41.927Z,100696.30
2018-08-20T02:47:15.418Z,100687.50
2018-08-20T02:49:48.832Z,100688.05
2018-08-20T02:52:22.275Z,100688.63
2018-08-20T02:54:55.748Z,100691.30
2018-08-20T02:57:29.159Z,100691.02
2018-08-20T03:00:02.716Z,100695.66
2018-08-20T03:02:36.286Z,100689.53
2018-08-20T03:05:10.945Z,100687.41
2018-08-20T03:07:44.376Z,100682.50
2018-08-20T03:10:17.819Z,100683.61
2018-08-20T03:12:51.234Z,100683.31
2018-08-20T03:15:24.734Z,100679.53
2018-08-20T03:17:58.144Z,100681.95
2018-08-20T03:20:31.597Z,100682.59
2018-08-20T03:23:05.037Z,100675.23
2018-08-20T03:25:38.465Z,100677.75
2018-08-20T03:28:11.877Z,100683.77
2018-08-20T03:30:45.256Z,100679.77
2018-08-20T03:33:18.684Z,100672.73
2018-08-20T03:35:52.057Z,100679.34
2018-08-20T03:38:25.460Z,100689.61
2018-08-20T03:40:58.878Z,100687.30
2018-08-20T03:43:33.014Z,100680.88
2018-08-20T03:46:06.540Z,100687.84
2018-08-20T03:48:39.976Z,100676.16
2018-08-20T03:51:13.383Z,100683.23
2018-08-20T03:53:46.792Z,100683.13
2018-08-20T03:56:20.224Z,100682.59
2018-08-20T03:58:53.800Z,100685.38
2018-08-20T04:01:27.352Z,100690.64
2018-08-20T04:04:00.861Z,100690.28
2018-08-20T04:06:34.256Z,100688.98
2018-08-20T04:09:07.712Z,100688.03
2018-08-20T04:11:41.086Z,100681.93
2018-08-20T04:14:14.608Z,100681.64
2018-08-20T04:16:47.988Z,100685.25
2018-08-20T04:19:21.416Z,100686.55
2018-08-20T04:21:54.808Z,100693.61
2018-08-20T04:24:28.217Z,100688.13
2018-08-20T04:27:02.181Z,100687.77
2018-08-20T04:29:35.583Z,100690.43
2018-08-20T04:32:08.971Z,100689.58
2018-08-20T04:34:42.395Z,100688.09
2018-08-20T04:37:15.773Z,100684.19
2018-08-20T04:39:49.200Z,100688.36
2018-08-20T04:42:22.700Z,100681.28
2018-08-20T04:44:56.824Z,100679.64
2018-08-20T04:47:30.203Z,100677.20
2018-08-20T04:50:03.856Z,100677.02
2018-08-20T04:52:37.292Z,100663.27
2018-08-20T04:55:10.899Z,100676.71
2018-08-20T04:57:44.297Z,100677.16
2018-08-20T05:00:17.720Z,100674.95
2018-08-20T05:02:51.129Z,100677.40
2018-08-20T05:05:24.533Z,100672.48
2018-08-20T05:07:57.915Z,100674.69
2018-08-20T05:10:31.343Z,100677.95
2018-08-20T05:13:04.756Z,100681.19
2018-08-20T05:15:38.191Z,100685.28
2018-08-20T05:18:11.670Z,100684.61
2018-08-20T05:20:45.132Z,100686.47
2018-08-20T05:23:18.528Z,100682.26
2018-08-20T05:25:51.966Z,100689.83
2018-08-20T05:28:25.374Z,100683.33
2018-08-20T05:30:58.881Z,100690.73
2018-08-20T05:33:32.431Z,100692.03
2018-08-20T05:36:05.852Z,100693.20
2018-08-20T05:38:39.278Z,100691.95
2018-08-20T05:41:12.705Z,100693.36
2018-08-20T05:43:46.136Z,100694.67
2018-08-20T05:46:19.578Z,100705.31
2018-08-20T05:48:53.033Z,100699.67
2018-08-20T05:51:26.468Z,100704.63
2018-08-20T05:53:59.933Z,100710.17
2018-08-20T05:56:33.403Z,100711.16
2018-08-20T05:59:06.936Z,100717.46
2018-08-20T06:01:40.466Z,100713.86
2018-08-20T06:04:13.998Z,100716.85
2018-08-20T06:06:47.447Z,100716.16
2018-08-20T06:09:20.880Z,100718.16
2018-08-20T06:11:54.364Z,100728.33
2018-08-20T06:14:27.867Z,100728.52
2018-08-20T06:17:01.361Z,100740.31
2018-08-20T06:19:34.869Z,100742.23
2018-08-20T06:22:08.368Z,100743.48
2018-08-20T06:24:41.783Z,100746.83
2018-08-20T06:27:15.229Z,100750.89
2018-08-20T06:29:48.680Z,100748.44
2018-08-20T06:32:22.096Z,100750.53
2018-08-20T06:34:55.485Z,100755.30
2018-08-20T06:37:28.893Z,100750.22
2018-08-20T06:40:02.322Z,100761.70
2018-08-20T06:42:35.728Z,100752.23
2018-08-20T06:45:14.081Z,100746.66
2018-08-20T06:47:47.847Z,100752.37
2018-08-20T06:50:21.306Z,100753.09
2018-08-20T06:52:54.751Z,100755.22
2018-08-20T06:55:28.257Z,100754.74
2018-08-20T06:58:03.006Z,100748.28
2018-08-20T07:00:36.437Z,100753.29
2018-08-20T07:03:09.927Z,100757.46
2018-08-20T07:05:43.332Z,100756.03
2018-08-20T07:08:16.716Z,100751.52
2018-08-20T07:10:50.113Z,100761.66
2018-08-20T07:13:34.316Z,100761.30
2018-08-20T07:16:08.836Z,100765.83
2018-08-20T07:18:42.270Z,100771.41
2018-08-20T07:21:15.781Z,100766.20
2018-08-20T07:23:50.071Z,100772.76
2018-08-20T07:26:23.443Z,100771.55
2018-08-20T07:28:56.852Z,100782.78
2018-08-20T07:31:30.397Z,100771.06
2018-08-20T07:34:03.857Z,100769.02
2018-08-20T07:36:37.345Z,100772.48
2018-08-20T07:39:10.894Z,100772.90
2018-08-20T07:41:44.308Z,100777.03
2018-08-20T07:44:17.721Z,100771.12
2018-08-20T07:46:51.125Z,100777.83
2018-08-20T07:49:24.514Z,100771.84
2018-08-20T07:51:57.974Z,100781.94
2018-08-20T07:54:34.039Z,100783.66
2018-08-20T07:57:08.775Z,100780.06
2018-08-20T07:59:42.328Z,100780.59
2018-08-20T08:02:15.724Z,100778.33
2018-08-20T08:04:49.106Z,100785.71
2018-08-20T08:07:22.550Z,100788.84
2018-08-20T08:09:55.955Z,100793.21
2018-08-20T08:12:29.373Z,100800.89
2018-08-20T08:15:03.212Z,100806.10
2018-08-20T08:17:36.669Z,100811.91
2018-08-20T08:20:11.884Z,100806.31
2018-08-20T08:22:45.594Z,100807.27
2018-08-20T08:25:19.325Z,100819.80
2018-08-20T08:27:52.737Z,100815.72
2018-08-20T08:30:26.146Z,100815.89
2018-08-20T08:32:59.569Z,100822.91
2018-08-20T08:35:33.068Z,100824.48
2018-08-20T08:38:06.620Z,100828.24
2018-08-20T08:40:40.034Z,100827.69
2018-08-20T08:45:45.933Z,100827.20
2018-08-20T08:48:19.363Z,100831.71
2018-08-20T08:50:52.783Z,100833.87
2018-08-20T08:53:26.248Z,100840.44
2018-08-20T08:55:59.821Z,100835.94
2018-08-20T08:58:33.251Z,100840.71
2018-08-20T09:01:06.701Z,100837.86
2018-08-20T09:03:40.146Z,100839.02
2018-08-20T09:06:13.640Z,100836.00
2018-08-20T09:08:47.035Z,100837.01
2018-08-20T09:11:20.929Z,100845.80
2018-08-20T09:13:54.346Z,100846.03
2018-08-20T09:16:27.757Z,100847.91
2018-08-20T09:19:01.236Z,100852.29
2018-08-20T09:21:34.793Z,100860.06
2018-08-20T09:24:08.257Z,100853.95
2018-08-20T09:26:41.668Z,100866.55
2018-08-20T09:29:15.149Z,100858.30
2018-08-20T09:31:48.621Z,100858.98
2018-08-20T09:34:22.069Z,100860.35
2018-08-20T09:36:55.629Z,100860.59
2018-08-20T09:39:29.048Z,100864.89
2018-08-20T09:42:03.525Z,100863.16
2018-08-20T09:44:36.984Z,100861.25
2018-08-20T09:47:10.402Z,100877.06
2018-08-20T09:49:43.807Z,100872.95
2018-08-20T09:52:17.239Z,100879.44
2018-08-20T09:54:50.668Z,100879.89
2018-08-20T09:57:24.231Z,100877.86
2018-08-20T09:59:57.642Z,100876.25
2018-08-20T10:02:31.166Z,100881.92
2018-08-20T10:05:04.923Z,100885.20
2018-08-20T10:07:38.383Z,100881.13
2018-08-20T10:10:11.880Z,100880.77
2018-08-20T10:12:46.044Z,100876.81
2018-08-20T10:15:19.488Z,100877.71
2018-08-20T10:17:52.942Z,100877.19
2018-08-20T10:20:26.372Z,100882.34
2018-08-20T10:22:59.847Z,100877.72
2018-08-20T10:25:33.218Z,100882.88
2018-08-20T10:28:06.664Z,100879.50
2018-08-20T10:30:40.078Z,100875.25
2018-08-20T10:33:13.580Z,100874.17
2018-08-20T10:35:46.947Z,100868.84
2018-08-20T10:38:20.498Z,100872.19
2018-08-20T10:40:53.908Z,100862.86
2018-08-20T10:43:27.336Z,100864.60
2018-08-20T10:46:06.063Z,100869.34
2018-08-20T10:48:39.480Z,100875.08
2018-08-20T10:51:12.889Z,100875.56
2018-08-20T10:53:46.273Z,100876.11
2018-08-20T10:56:19.745Z,100872.07
2018-08-20T10:58:53.169Z,100874.02
2018-08-20T11:01:26.540Z,100876.62
2018-08-20T11:04:00.529Z,100868.50
2018-08-20T11:06:33.913Z,100871.06
2018-08-20T11:09:08.323Z,100881.23
2018-08-20T11:11:41.717Z,100891.04
2018-08-20T11:14:15.189Z,100888.88
2018-08-20T11:16:48.573Z,100896.17
2018-08-20T11:19:22.015Z,100898.34
2018-08-20T11:21:55.428Z,100895.37
2018-08-20T11:24:28.876Z,100900.27
2018-08-20T11:27:02.955Z,100896.77
2018-08-20T11:29:36.408Z,100893.84
2018-08-20T11:32:09.818Z,100896.12
2018-08-20T11:34:43.311Z,100894.98
2018-08-20T11:37:16.742Z,100895.75
2018-08-20T11:39:50.167Z,100895.45
2018-08-20T11:42:23.571Z,100895.44
2018-08-20T11:44:56.987Z,100888.36
2018-08-20T11:47:30.452Z,100884.05
2018-08-20T11:50:03.905Z,100889.31
2018-08-20T11:52:38.308Z,100893.17
2018-08-20T11:55:11.786Z,100882.89
2018-08-20T11:57:45.172Z,100888.27
2018-08-20T12:00:18.621Z,100884.09
2018-08-20T12:02:52.052Z,100887.34
2018-08-20T12:05:25.457Z,100887.58
2018-08-20T12:07:58.948Z,100891.02
2018-08-20T12:10:32.440Z,100889.62
2018-08-20T12:13:05.978Z,100879.94
2018-08-20T12:15:39.367Z,100886.56
2018-08-20T12:18:12.783Z,100885.23
2018-08-20T12:20:46.172Z,100886.09
2018-08-20T12:23:19.664Z,100888.70
2018-08-20T12:25:52.986Z,100889.05
2018-08-20T12:28:26.485Z,100885.21
2018-08-20T12:30:59.969Z,100882.97
2018-08-20T12:33:33.421Z,100888.83
2018-08-20T12:36:06.996Z,100884.89
2018-08-20T12:38:40.420Z,100883.58
2018-08-20T12:41:13.809Z,100885.94
2018-08-20T12:43:47.231Z,100871.35
2018-08-20T12:46:20.809Z,100884.75
2018-08-20T12:48:54.232Z,100882.61
2018-08-20T12:51:27.624Z,100891.52
2018-08-20T12:54:01.079Z,100891.27
2018-08-20T12:56:34.487Z,100887.23
2018-08-20T12:59:07.903Z,100891.14
2018-08-20T13:01:41.324Z,100885.67
2018-08-20T13:04:14.742Z,100892.45
2018-08-20T13:06:48.119Z,100885.80
2018-08-20T13:09:21.626Z,100893.23
2018-08-20T13:11:55.015Z,100893.32
2018-08-20T13:14:28.423Z,100898.75
2018-08-20T13:17:01.833Z,100895.28
2018-08-20T13:19:35.275Z,100906.52
2018-08-20T13:22:08.680Z,100897.71
2018-08-20T13:24:42.105Z,100904.06
2018-08-20T13:27:15.566Z,100912.98
2018-08-20T13:29:49.231Z,100910.97
2018-08-20T13:32:22.604Z,100909.80
2018-08-20T13:34:56.069Z,100916.54
2018-08-20T13:37:29.526Z,100914.41
2018-08-20T13:40:03.054Z,100906.02
2018-08-20T13:42:36.500Z,100910.48
2018-08-20T13:45:09.996Z,100906.95
2018-08-20T13:47:43.418Z,100913.14
2018-08-20T13:50:16.996Z,100909.00
2018-08-20T13:52:50.627Z,100911.42
2018-08-20T13:55:24.068Z,100915.79
2018-08-20T13:57:57.512Z,100913.66
2018-08-20T14:00:31.190Z,100918.40
2018-08-20T14:03:04.779Z,100914.73
2018-08-20T14:05:38.339Z,100917.22
2018-08-20T14:08:11.896Z,100918.80
2018-08-20T14:10:45.389Z,100921.05
2018-08-20T14:13:18.893Z,100923.12
2018-08-20T14:15:52.316Z,100931.38
2018-08-20T14:18:25.753Z,100922.17
2018-08-20T14:21:07.479Z,100923.23
2018-08-20T14:23:43.093Z,100921.44
2018-08-20T14:26:16.573Z,100926.24
2018-08-20T14:28:50.042Z,100925.81
2018-08-20T14:31:23.480Z,100923.20
2018-08-20T14:33:56.996Z,100919.64
2018-08-20T14:36:30.481Z,100926.16
2018-08-20T14:39:04.229Z,100927.16
2018-08-20T14:41:37.696Z,100932.47
2018-08-20T14:44:11.119Z,100926.55
2018-08-20T14:46:44.656Z,100931.42
2018-08-20T14:49:18.072Z,100930.81
2018-08-20T14:51:51.584Z,100925.55
2018-08-20T14:54:25.080Z,100929.30
2018-08-20T14:56:59.474Z,100933.91
2018-08-20T14:59:33.027Z,100938.02
2018-08-20T15:02:06.743Z,100939.33
2018-08-20T15:04:40.241Z,100941.41
2018-08-20T15:07:13.764Z,100939.27
2018-08-20T15:09:47.189Z,100945.32
2018-08-20T15:12:20.608Z,100948.38
2018-08-20T15:14:54.048Z,100940.59
2018-08-20T15:17:27.504Z,100946.08
2018-08-20T15:20:00.897Z,100948.43
2018-08-20T15:22:34.475Z,100954.69
2018-08-20T15:25:07.997Z,100962.74
2018-08-20T15:27:41.427Z,100966.49
2018-08-20T15:30:14.818Z,100973.92
2018-08-20T15:32:48.306Z,100976.42
2018-08-20T15:35:22.123Z,100969.23
2018-08-20T15:37:55.976Z,100975.50
2018-08-20T15:40:29.404Z,100987.16
2018-08-20T15:43:02.991Z,100979.73
2018-08-20T15:45:36.423Z,100986.61
2018-08-20T15:48:09.859Z,100987.20
2018-08-20T15:50:43.320Z,100982.67
2018-08-20T15:53:16.851Z,100980.80
2018-08-20T15:55:50.304Z,100981.80
2018-08-20T15:58:23.738Z,100978.03
2018-08-20T16:00:57.242Z,100975.58
2018-08-20T16:03:30.754Z,100976.59
2018-08-20T16:06:04.395Z,100969.23
2018-08-20T16:08:37.801Z,100963.73
2018-08-20T16:11:11.212Z,100967.02
2018-08-20T16:13:44.632Z,100962.91
2018-08-20T16:16:18.057Z,100965.33
2018-08-20T16:18:51.648Z,100963.61
2018-08-20T16:21:25.057Z,100963.79
2018-08-20T16:23:58.433Z,100965.45
2018-08-20T16:26:32.086Z,100955.70
2018-08-20T16:29:05.605Z,100963.17
2018-08-20T16:31:39.080Z,100954.48
2018-08-20T16:34:12.457Z,100954.72
2018-08-20T16:36:45.879Z,100952.50
2018-08-20T16:39:19.336Z,100952.05
2018-08-20T16:41:52.757Z,100955.02
2018-08-20T16:44:26.162Z,100953.36
2018-08-20T16:46:59.594Z,100943.02
2018-08-20T16:49:33.008Z,100950.16
2018-08-20T16:52:06.783Z,100956.80
2018-08-20T16:54:40.176Z,100948.84
2018-08-20T16:57:13.605Z,100953.09
2018-08-20T16:59:47.175Z,100952.14
2018-08-20T17:02:27.982Z,100954.66
2018-08-20T17:05:01.704Z,100950.30
2018-08-20T17:07:35.251Z,100957.09
2018-08-20T17:10:10.103Z,100958.13
2018-08-20T17:12:44.597Z,100952.20
2018-08-20T17:15:19.925Z,100947.69
2018-08-20T17:17:53.368Z,100946.72
2018-08-20T17:20:26.793Z,100949.20
2018-08-20T17:23:13.172Z,100949.95
2018-08-20T17:26:02.283Z,100953.52
2018-08-20T17:28:36.637Z,100955.56
2018-08-20T17:31:12.772Z,100951.72
2018-08-20T17:33:46.281Z,100961.33
2018-08-20T17:36:19.754Z,100965.45
2018-08-20T17:38:53.308Z,100966.42
2018-08-20T17:41:26.704Z,100974.39
2018-08-20T17:44:00.200Z,100968.20
2018-08-20T17:46:33.700Z,100975.05
2018-08-20T17:49:10.011Z,100977.39
2018-08-20T17:51:43.501Z,100975.59
2018-08-20T17:54:16.937Z,100981.73
2018-08-20T17:56:50.383Z,100981.53
2018-08-20T17:59:24.277Z,100975.07
2018-08-20T18:01:57.696Z,100979.03
2018-08-20T18:04:31.158Z,100979.14
2018-08-20T18:07:04.557Z,100982.37
2018-08-20T18:09:37.983Z,100983.13
2018-08-20T18:12:11.441Z,100985.11
2018-08-20T18:14:47.799Z,100990.08
2018-08-20T18:17:21.362Z,100994.08
2018-08-20T18:19:54.787Z,100995.02
2018-08-20T18:22:28.233Z,100994.39
2018-08-20T18:25:01.731Z,100997.47
2018-08-20T18:27:41.256Z,101001.10
2018-08-20T18:30:16.836Z,101007.34
2018-08-20T18:32:50.635Z,101011.01
2018-08-20T18:38:02.302Z,101009.52
2018-08-20T18:40:35.795Z,101020.99
2018-08-20T18:43:10.373Z,101019.41
2018-08-20T18:45:43.955Z,101023.98
2018-08-20T18:48:22.533Z,101033.89
2018-08-20T18:50:55.967Z,101043.36
2018-08-20T18:53:33.896Z,101042.89
2018-08-20T18:56:13.437Z,101044.30
2018-08-20T18:58:47.120Z,101053.03
2018-08-20T19:01:20.720Z,101055.39
2018-08-20T19:03:54.592Z,101050.18
2018-08-20T19:06:28.005Z,101057.21
2018-08-20T19:09:01.576Z,101059.06
2018-08-20T19:11:36.075Z,101061.03
2018-08-20T19:14:12.507Z,101062.52
2018-08-20T19:16:46.012Z,101068.86
2018-08-20T19:19:19.677Z,101069.92
2018-08-20T19:21:53.165Z,101072.73
2018-08-20T19:24:31.352Z,101067.61
2018-08-20T19:27:09.104Z,101075.91
2018-08-20T19:29:42.606Z,101072.66
2018-08-20T19:32:16.119Z,101078.16
2018-08-20T19:34:49.940Z,101071.73
2018-08-20T19:37:23.504Z,101074.05
2018-08-20T19:39:57.421Z,101073.69
2018-08-20T19:42:33.427Z,101077.23
2018-08-20T19:45:08.757Z,101073.41
2018-08-20T19:47:42.275Z,101073.04
2018-08-20T19:51:18.909Z,101068.77
2018-08-20T19:53:52.563Z,101071.84
2018-08-20T19:56:26.135Z,101076.66
2018-08-20T19:58:59.598Z,101072.57
2018-08-20T20:01:33.798Z,101084.67
2018-08-20T20:04:07.493Z,101084.75
2018-08-20T20:06:40.961Z,101083.92
2018-08-20T20:09:14.986Z,101081.75
2018-08-20T20:11:50.287Z,101078.97
2018-08-20T20:14:23.831Z,101078.97
2018-08-20T20:16:57.232Z,101073.55
2018-08-20T20:19:30.676Z,101079.51
2018-08-20T20:22:04.211Z,101081.45
2018-08-20T20:24:37.667Z,101085.18
2018-08-20T20:27:11.072Z,101082.58
2018-08-20T20:29:44.512Z,101080.52
2018-08-20T20:32:17.935Z,101087.13
2018-08-20T20:34:51.413Z,101084.06
2018-08-20T20:37:24.793Z,101078.48
2018-08-20T20:39:59.704Z,101087.41
2018-08-20T20:42:33.121Z,101087.59
2018-08-20T20:45:06.630Z,101091.19
2018-08-20T20:47:41.123Z,101090.06
2018-08-20T20:50:14.826Z,101092.02
2018-08-20T20:52:48.308Z,101096.27
2018-08-20T20:55:21.877Z,101096.91
2018-08-20T20:57:55.745Z,101098.78
2018-08-20T21:00:29.286Z,101108.12
2018-08-20T21:03:08.841Z,101113.30
2018-08-20T21:05:42.439Z,101113.73
2018-08-20T21:08:15.890Z,101113.17
2018-08-20T21:10:49.331Z,101123.05
2018-08-20T21:13:22.756Z,101125.04
2018-08-20T21:16:14.928Z,101125.31
2018-08-20T21:18:51.316Z,101119.81
2018-08-20T21:21:25.464Z,101133.27
2018-08-20T21:23:58.912Z,101123.98
2018-08-20T21:26:32.377Z,101130.64
2018-08-20T21:29:05.803Z,101130.13
2018-08-20T21:31:44.608Z,101129.00
2018-08-20T21:34:18.058Z,101134.76
2018-08-20T21:36:51.534Z,101138.24
2018-08-20T21:39:24.995Z,101135.20
2018-08-20T21:41:58.414Z,101142.31
2018-08-20T21:44:31.888Z,101146.00
2018-08-20T21:47:28.055Z,101150.98
2018-08-20T21:50:01.557Z,101146.33
2018-08-20T21:52:34.956Z,101150.38
2018-08-20T21:55:08.411Z,101151.83
2018-08-20T21:57:59.324Z,101150.05
2018-08-20T22:00:32.949Z,101150.83
2018-08-20T22:03:07.796Z,101144.25
2018-08-20T22:05:41.253Z,101144.03
2018-08-20T22:08:14.693Z,101142.48
2018-08-20T22:10:48.094Z,101148.86
2018-08-20T22:13:27.833Z,101158.39
2018-08-20T22:16:14.864Z,101155.20
2018-08-20T22:18:53.403Z,101160.18
2018-08-20T22:21:26.827Z,101159.23
2018-08-20T22:24:01.803Z,101159.16
2018-08-20T22:26:35.328Z,101158.56
2018-08-20T22:29:08.763Z,101167.78
2018-08-20T22:31:46.577Z,101168.47
2018-08-20T22:34:20.007Z,101175.93
2018-08-20T22:36:56.999Z,101171.78
2018-08-20T22:39:30.387Z,101172.76
2018-08-20T22:42:03.832Z,101176.33
2018-08-20T22:44:37.261Z,101176.93
2018-08-20T22:47:10.661Z,101181.42
2018-08-20T22:49:44.068Z,101178.73
2018-08-20T22:52:21.606Z,101182.84
2018-08-20T22:54:55.063Z,101183.50
2018-08-20T22:57:28.460Z,101178.31
2018-08-20T23:00:03.837Z,101178.86
2018-08-20T23:02:37.352Z,101188.69
2018-08-20T23:05:15.013Z,101185.20
2018-08-20T23:07:48.498Z,101184.55
2018-08-20T23:10:21.907Z,101190.03
2018-08-20T23:12:55.312Z,101189.78
2018-08-20T23:15:28.696Z,101193.67
2018-08-20T23:18:02.801Z,101189.59
2018-08-20T23:20:36.233Z,101193.11
2018-08-20T23:23:09.638Z,101188.61
2018-08-20T23:25:43.099Z,101194.08
2018-08-20T23:28:16.526Z,101196.66
2018-08-20T23:30:54.307Z,101190.20
2018-08-20T23:33:27.707Z,101196.23
2018-08-20T23:36:01.195Z,101197.53
2018-08-20T23:38:34.630Z,101194.48
2018-08-20T23:41:08.042Z,101195.70
2018-08-20T23:43:45.619Z,101192.20
2018-08-20T23:46:29.516Z,101189.23
2018-08-20T23:49:03.491Z,101189.59
2018-08-20T23:51:36.940Z,101190.80
2018-08-20T23:54:11.580Z,101191.27
2018-08-20T23:56:44.988Z,101198.97
2018-08-20T23:59:18.487Z,101197.09
